Time;durP1;ratioP1;P1;durP2;ratioP2;P2;SDS_P1;SDS_P2;PMS_P1;PMS_P2;Temp;Humidity;BMP_temperature;BMP_pressure;BME280_temperature;BME280_humidity;BME280_pressure;Samples;Min_cycle;Max_cycle;Signal;HPM_P1;HPM_P2
2023/06/17 00:01:14;;;;;;;12.10;8.50;;;15.70;99.90;;;;;;4745819;30;20082;-96
2023/06/17 00:03:47;;;;;;;11.45;8.88;;;15.70;99.90;;;;;;4753729;30;20135;-96
2023/06/17 00:06:13;;;;;;;13.18;9.75;;;15.70;99.90;;;;;;4741404;30;20051;-96
2023/06/17 00:08:39;;;;;;;11.73;9.57;;;16.00;99.90;;;;;;4746759;30;20055;-96
2023/06/17 00:11:06;;;;;;;11.98;9.57;;;;;;;;;;4765362;30;20050;-96
2023/06/17 00:13:37;;;;;;;11.55;8.88;;;15.80;99.90;;;;;;4752699;30;20048;-96
2023/06/17 00:16:08;;;;;;;13.68;9.85;;;15.80;99.90;;;;;;4745655;30;20054;-96
2023/06/17 00:18:36;;;;;;;10.40;9.32;;;15.60;99.90;;;;;;4751194;30;20094;-96
2023/06/17 00:21:02;;;;;;;12.45;9.73;;;15.80;99.90;;;;;;4756360;30;20044;-96
2023/06/17 00:23:31;;;;;;;11.18;9.00;;;15.80;99.90;;;;;;4756103;30;20044;-96
2023/06/17 00:26:04;;;;;;;10.65;9.63;;;15.80;99.90;;;;;;4764790;30;20044;-96
2023/06/17 00:28:36;;;;;;;12.20;10.32;;;15.80;99.90;;;;;;4753321;30;20060;-96
2023/06/17 00:31:02;;;;;;;12.35;10.88;;;15.90;99.90;;;;;;4731720;30;20052;-96
2023/06/17 00:33:28;;;;;;;12.77;11.13;;;15.90;99.90;;;;;;4741471;30;20044;-96
2023/06/17 00:35:54;;;;;;;14.55;12.15;;;15.80;99.90;;;;;;4733829;30;20044;-96
2023/06/17 00:38:19;;;;;;;13.20;11.82;;;15.90;99.90;;;;;;4741612;30;20040;-96
2023/06/17 00:40:45;;;;;;;13.20;11.75;;;16.40;99.90;;;;;;4728000;30;20111;-96
2023/06/17 00:43:11;;;;;;;15.52;11.82;;;15.80;99.90;;;;;;4741405;30;20041;-96
2023/06/17 00:45:38;;;;;;;11.30;10.13;;;15.90;99.90;;;;;;4741720;30;20385;-96
2023/06/17 00:48:07;;;;;;;10.80;9.70;;;15.90;99.90;;;;;;4755852;30;20103;-96
2023/06/17 00:50:36;;;;;;;13.68;10.10;;;15.90;99.90;;;;;;4738460;30;20048;-96
2023/06/17 00:53:02;;;;;;;12.43;10.20;;;15.90;99.90;;;;;;4737891;30;20048;-96
2023/06/17 00:55:28;;;;;;;14.20;10.37;;;15.90;99.90;;;;;;4733057;30;20090;-96
2023/06/17 00:57:57;;;;;;;11.02;9.80;;;15.90;99.90;;;;;;4739806;30;21379;-96
2023/06/17 01:00:23;;;;;;;11.27;10.25;;;15.90;99.90;;;;;;4739458;30;20048;-96
2023/06/17 01:02:49;;;;;;;10.82;9.15;;;15.80;99.90;;;;;;4739223;30;20068;-95
2023/06/17 01:05:17;;;;;;;12.40;9.02;;;15.80;99.90;;;;;;4739161;30;20407;-96
2023/06/17 01:08:09;;;;;;;12.43;9.35;;;15.80;99.90;;;;;;4738852;30;20604;-96
2023/06/17 01:11:03;;;;;;;12.73;9.10;;;15.80;99.90;;;;;;4728829;30;20048;-96
2023/06/17 01:13:30;;;;;;;9.13;7.78;;;15.80;99.90;;;;;;4739723;30;20076;-95
2023/06/17 01:15:57;;;;;;;9.77;8.77;;;15.80;99.90;;;;;;4738524;30;20451;-96
2023/06/17 01:18:24;;;;;;;11.93;8.40;;;15.80;99.90;;;;;;4723651;30;20087;-96
2023/06/17 01:20:54;;;;;;;;;;;15.70;99.90;;;;;;4761396;30;20055;-95
2023/06/17 01:23:31;;;;;;;12.45;8.75;;;15.70;99.90;;;;;;4739762;30;19968;-96
2023/06/17 01:25:57;;;;;;;11.73;8.88;;;15.70;99.90;;;;;;4732464;30;20097;-95
2023/06/17 01:28:24;;;;;;;10.37;9.27;;;15.70;99.90;;;;;;4741016;30;20040;-96
2023/06/17 01:30:57;;;;;;;13.52;9.32;;;15.70;99.90;;;;;;4759186;30;20481;-96
2023/06/17 01:33:24;;;;;;;11.30;8.82;;;15.70;99.90;;;;;;4735282;30;20397;-96
2023/06/17 01:36:04;;;;;;;12.45;8.35;;;15.70;99.90;;;;;;4745040;30;20148;-96
2023/06/17 01:38:55;;;;;;;10.70;8.70;;;15.70;99.90;;;;;;4748088;30;20044;-96
2023/06/17 01:41:30;;;;;;;9.88;7.75;;;15.70;99.90;;;;;;4746452;30;20047;-95
2023/06/17 01:43:57;;;;;;;9.63;8.30;;;15.70;99.90;;;;;;4746709;30;20476;-95
2023/06/17 01:46:27;;;;;;;16.20;8.63;;;15.60;99.90;;;;;;4749399;30;20076;-96
2023/06/17 01:48:56;;;;;;;11.20;9.32;;;15.60;99.90;;;;;;4739119;30;20543;-96
2023/06/17 01:51:22;;;;;;;11.80;9.00;;;15.60;99.90;;;;;;4739097;30;20050;-96
2023/06/17 01:53:48;;;;;;;10.13;9.13;;;15.50;99.90;;;;;;4721722;30;20051;-95
2023/06/17 01:56:14;;;;;;;11.68;9.10;;;15.50;99.90;;;;;;4742640;30;20623;-96
2023/06/17 01:58:40;;;;;;;9.70;8.75;;;15.50;99.90;;;;;;4735509;30;20040;-95
2023/06/17 02:01:06;;;;;;;11.88;9.70;;;15.50;99.90;;;;;;4761491;30;20130;-95
2023/06/17 02:03:32;;;;;;;13.38;9.63;;;15.50;99.90;;;;;;4721060;30;20402;-96
2023/06/17 02:05:58;;;;;;;10.82;9.13;;;15.50;99.90;;;;;;4736531;30;20040;-95
2023/06/17 02:08:23;;;;;;;10.07;9.05;;;15.60;99.90;;;;;;4737799;30;20050;-96
2023/06/17 02:10:49;;;;;;;13.43;10.20;;;15.50;99.90;;;;;;4736337;30;20048;-96
2023/06/17 02:13:15;;;;;;;10.25;9.15;;;15.50;99.90;;;;;;4743991;30;20086;-96
2023/06/17 02:15:42;;;;;;;12.23;9.25;;;15.50;99.90;;;;;;4726989;30;20074;-96
2023/06/17 02:18:12;;;;;;;13.57;9.38;;;15.50;99.90;;;;;;4718065;30;20048;-96
2023/06/17 02:20:38;;;;;;;11.18;9.23;;;15.40;99.90;;;;;;4740347;30;20048;-96
2023/06/17 02:23:04;;;;;;;11.98;9.25;;;15.40;99.90;;;;;;4726873;30;20080;-95
2023/06/17 02:25:30;;;;;;;13.80;9.95;;;15.40;99.90;;;;;;4723345;30;20083;-95
2023/06/17 02:27:55;;;;;;;12.88;8.50;;;15.40;99.90;;;;;;4733625;30;20139;-96
2023/06/17 02:30:21;;;;;;;10.82;9.23;;;15.40;99.90;;;;;;4725539;30;20063;-94
2023/06/17 02:32:47;;;;;;;10.90;9.13;;;15.40;99.90;;;;;;4733056;30;20056;-95
2023/06/17 02:35:13;;;;;;;11.13;8.57;;;15.30;99.90;;;;;;4725558;30;20051;-96
2023/06/17 02:37:40;;;;;;;11.45;8.57;;;15.30;99.90;;;;;;4728774;30;20063;-95
2023/06/17 02:40:08;;;;;;;11.88;9.27;;;15.30;99.90;;;;;;4736250;30;20063;-96
2023/06/17 02:42:36;;;;;;;11.68;9.70;;;15.30;99.90;;;;;;4736778;30;20050;-94
2023/06/17 02:45:02;;;;;;;;;;;15.20;99.90;;;;;;4737668;30;20083;-94
2023/06/17 02:47:28;;;;;;;10.57;9.13;;;15.20;99.90;;;;;;4737792;30;19975;-96
2023/06/17 02:49:54;;;;;;;11.57;9.23;;;15.20;99.90;;;;;;4721133;30;20603;-96
2023/06/17 02:52:20;;;;;;;10.82;9.68;;;15.10;99.90;;;;;;4749129;30;20552;-96
2023/06/17 02:54:46;;;;;;;12.60;8.90;;;15.10;99.90;;;;;;4755763;30;20051;-96
2023/06/17 02:57:12;;;;;;;11.55;9.65;;;15.10;99.90;;;;;;4719921;30;20036;-96
2023/06/17 02:59:38;;;;;;;13.50;9.77;;;15.10;99.90;;;;;;4722237;30;20413;-95
2023/06/17 03:02:05;;;;;;;10.77;8.82;;;15.10;99.90;;;;;;4723501;30;20052;-96
2023/06/17 03:04:37;;;;;;;12.20;10.27;;;15.20;99.90;;;;;;4736286;30;20044;-96
2023/06/17 03:07:04;;;;;;;10.70;9.65;;;15.20;99.90;;;;;;4756612;30;20047;-95
2023/06/17 03:09:30;;;;;;;10.75;9.68;;;15.20;99.90;;;;;;4739389;30;20052;-96
2023/06/17 03:11:56;;;;;;;12.13;9.65;;;15.20;99.90;;;;;;4737376;30;20688;-95
2023/06/17 03:14:21;;;;;;;11.57;10.10;;;15.20;99.90;;;;;;4749436;30;20044;-96
2023/06/17 03:16:47;;;;;;;10.75;9.65;;;15.10;99.90;;;;;;4723380;30;20049;-96
2023/06/17 03:19:14;;;;;;;11.50;9.98;;;15.10;99.90;;;;;;4746239;30;20055;-96
2023/06/17 03:21:42;;;;;;;13.07;11.05;;;15.20;99.90;;;;;;4736408;30;20055;-96
2023/06/17 03:24:08;;;;;;;14.52;11.40;;;15.10;99.90;;;;;;4737163;30;20123;-96
2023/06/17 03:26:35;;;;;;;14.70;13.20;;;15.10;99.90;;;;;;4742408;30;20570;-94
2023/06/17 03:29:03;;;;;;;13.45;11.80;;;15.10;99.90;;;;;;4744415;30;20504;-95
2023/06/17 03:31:29;;;;;;;15.38;12.43;;;15.10;99.90;;;;;;4737166;30;20048;-96
2023/06/17 03:33:55;;;;;;;12.73;11.02;;;15.00;99.90;;;;;;4743144;30;20118;-96
2023/06/17 03:36:30;;;;;;;13.60;11.93;;;15.00;99.90;;;;;;4722753;30;20048;-96
2023/06/17 03:38:56;;;;;;;13.55;11.18;;;15.00;99.90;;;;;;4719088;30;20055;-95
2023/06/17 03:41:28;;;;;;;13.95;12.55;;;15.10;99.90;;;;;;4732126;30;20087;-96
2023/06/17 03:43:54;;;;;;;15.52;12.38;;;15.10;99.90;;;;;;4741057;30;20052;-96
2023/06/17 03:46:23;;;;;;;15.65;14.07;;;15.10;99.90;;;;;;4748897;30;20095;-95
2023/06/17 03:48:49;;;;;;;14.25;12.70;;;15.10;99.90;;;;;;4724759;30;20091;-96
2023/06/17 03:51:16;;;;;;;14.68;12.90;;;15.10;99.90;;;;;;4737171;30;20051;-96
2023/06/17 03:53:42;;;;;;;15.52;13.43;;;15.10;99.90;;;;;;4736292;30;20069;-96
2023/06/17 03:56:08;;;;;;;15.05;12.82;;;15.10;99.90;;;;;;4749401;30;20617;-96
2023/06/17 03:58:34;;;;;;;14.18;11.80;;;15.10;99.90;;;;;;4738047;30;20516;-96
2023/06/17 04:00:59;;;;;;;14.27;12.75;;;15.20;99.90;;;;;;4734490;30;20051;-94
2023/06/17 04:03:26;;;;;;;16.90;12.95;;;15.10;99.90;;;;;;4745098;30;20067;-94
2023/06/17 04:05:52;;;;;;;15.13;13.05;;;15.10;99.90;;;;;;4730049;30;20206;-96
2023/06/17 04:08:18;;;;;;;13.77;12.38;;;15.10;99.90;;;;;;4711977;30;20554;-96
2023/06/17 04:10:47;;;;;;;17.20;12.53;;;15.10;99.90;;;;;;4748964;30;20052;-96
2023/06/17 04:13:14;;;;;;;16.73;12.80;;;15.10;99.90;;;;;;4752065;30;20089;-96
2023/06/17 04:15:45;;;;;;;16.83;12.50;;;15.10;99.90;;;;;;4745846;30;20489;-96
2023/06/17 04:18:11;;;;;;;14.50;13.00;;;15.10;99.90;;;;;;4738402;30;20048;-96
2023/06/17 04:20:37;;;;;;;13.45;12.05;;;15.10;99.90;;;;;;4736290;30;20411;-96
2023/06/17 04:23:02;;;;;;;13.48;11.35;;;15.10;99.90;;;;;;4751989;30;20051;-96
2023/06/17 04:25:32;;;;;;;17.90;11.95;;;15.10;99.90;;;;;;4750044;30;20040;-96
2023/06/17 04:27:58;;;;;;;12.85;10.80;;;15.10;99.90;;;;;;4751162;30;20052;-96
2023/06/17 04:30:25;;;;;;;12.88;10.68;;;15.20;99.90;;;;;;4707112;30;20053;-96
2023/06/17 04:32:51;;;;;;;12.52;10.60;;;15.20;99.90;;;;;;4713661;30;20045;-96
2023/06/17 04:35:18;;;;;;;11.55;10.18;;;15.20;99.90;;;;;;4728437;30;20049;-95
2023/06/17 04:37:49;;;;;;;12.27;10.10;;;15.20;99.90;;;;;;4733124;30;20053;-95
2023/06/17 04:40:14;;;;;;;12.73;10.73;;;15.20;99.90;;;;;;4707062;30;20041;-95
2023/06/17 04:42:44;;;;;;;13.10;10.68;;;15.10;99.90;;;;;;4722589;30;20052;-95
2023/06/17 04:45:10;;;;;;;16.42;12.23;;;15.20;99.90;;;;;;4711892;30;20048;-96
2023/06/17 04:47:36;;;;;;;13.40;10.95;;;15.10;99.90;;;;;;4718226;30;20530;-94
2023/06/17 04:50:03;;;;;;;12.65;11.35;;;15.10;99.90;;;;;;4732950;30;20048;-96
2023/06/17 04:52:29;;;;;;;12.57;11.27;;;15.10;99.90;;;;;;4724342;30;20053;-96
2023/06/17 04:54:55;;;;;;;15.10;12.23;;;15.10;99.90;;;;;;4720434;30;20045;-96
2023/06/17 04:57:21;;;;;;;16.63;11.82;;;15.20;99.90;;;;;;4742118;30;20562;-95
2023/06/17 04:59:47;;;;;;;14.45;12.95;;;15.20;99.90;;;;;;4725921;30;20134;-95
2023/06/17 05:02:13;;;;;;;16.08;12.07;;;15.10;99.90;;;;;;4732488;30;20764;-96
2023/06/17 05:04:39;;;;;;;16.03;12.20;;;15.10;99.90;;;;;;4729493;30;20056;-96
2023/06/17 05:07:05;;;;;;;12.93;11.48;;;15.20;99.90;;;;;;4702790;30;20045;-96
2023/06/17 05:09:31;;;;;;;15.00;12.13;;;15.20;99.90;;;;;;4691231;30;20049;-96
2023/06/17 05:11:56;;;;;;;18.92;11.80;;;15.20;99.90;;;;;;4720823;30;20128;-95
2023/06/17 05:14:22;;;;;;;16.30;12.55;;;15.20;99.90;;;;;;4729800;30;20044;-95
2023/06/17 05:16:48;;;;;;;14.95;13.13;;;15.20;99.90;;;;;;4704700;30;20045;-96
2023/06/17 05:19:14;;;;;;;14.83;12.53;;;15.20;99.90;;;;;;4703489;30;20053;-95
2023/06/17 05:21:40;;;;;;;15.88;12.88;;;15.30;99.90;;;;;;4731493;30;20124;-95
2023/06/17 05:24:06;;;;;;;15.35;12.70;;;15.20;99.90;;;;;;4692785;30;20071;-96
2023/06/17 05:26:31;;;;;;;16.27;13.95;;;15.30;99.90;;;;;;4736231;30;20048;-95
2023/06/17 05:28:57;;;;;;;14.85;12.02;;;15.30;99.90;;;;;;4711151;30;20060;-95
2023/06/17 05:31:23;;;;;;;14.68;13.05;;;15.30;99.90;;;;;;4738885;30;20044;-96
2023/06/17 05:33:49;;;;;;;13.10;11.50;;;15.30;99.90;;;;;;4737306;30;20056;-96
2023/06/17 05:36:15;;;;;;;11.63;10.43;;;15.30;99.90;;;;;;4755870;30;20048;-96
2023/06/17 05:38:52;;;;;;;12.30;9.93;;;15.30;99.90;;;;;;4749449;30;20044;-95
2023/06/17 05:41:45;;;;;;;13.93;10.32;;;15.30;99.90;;;;;;4745409;30;20051;-95
2023/06/17 05:44:11;;;;;;;12.07;9.98;;;15.40;99.90;;;;;;4727157;30;20055;-96
2023/06/17 05:46:37;;;;;;;11.38;9.55;;;15.40;99.90;;;;;;4723938;30;20040;-96
2023/06/17 05:49:03;;;;;;;12.38;9.50;;;15.40;99.90;;;;;;4754908;30;20052;-96
2023/06/17 05:51:29;;;;;;;11.35;8.43;;;15.50;99.90;;;;;;4750232;30;20052;-96
2023/06/17 05:53:54;;;;;;;13.43;9.75;;;15.50;99.90;;;;;;4709636;30;20037;-96
2023/06/17 05:56:20;;;;;;;11.30;9.07;;;15.50;99.90;;;;;;4729414;30;20040;-94
2023/06/17 05:58:46;;;;;;;10.90;9.38;;;15.50;99.90;;;;;;4750492;30;20524;-96
2023/06/17 06:01:12;;;;;;;8.88;7.72;;;15.60;99.90;;;;;;4719238;30;20127;-95
2023/06/17 06:03:38;;;;;;;9.75;8.73;;;15.60;99.90;;;;;;4742887;30;20552;-96
2023/06/17 06:06:04;;;;;;;11.65;9.38;;;15.60;99.90;;;;;;4739833;30;20130;-96
2023/06/17 06:08:30;;;;;;;13.82;9.57;;;15.70;99.90;;;;;;4737849;30;20131;-95
2023/06/17 06:10:55;;;;;;;11.25;9.43;;;15.70;99.90;;;;;;4720135;30;20063;-96
2023/06/17 06:13:21;;;;;;;11.95;8.77;;;15.70;99.90;;;;;;4734568;30;20047;-95
2023/06/17 06:15:47;;;;;;;11.13;8.52;;;15.70;99.90;;;;;;4746224;30;20050;-95
2023/06/17 06:18:14;;;;;;;11.77;8.55;;;15.80;99.90;;;;;;4739077;30;20131;-96
2023/06/17 06:20:40;;;;;;;10.50;9.10;;;15.80;99.90;;;;;;4725913;30;20057;-96
2023/06/17 06:23:05;;;;;;;11.88;8.43;;;15.80;99.90;;;;;;4734829;30;20053;-96
2023/06/17 06:25:31;;;;;;;11.02;9.40;;;15.80;99.90;;;;;;4703934;30;20645;-96
2023/06/17 06:27:58;;;;;;;11.73;9.60;;;15.90;99.90;;;;;;4727480;30;20048;-95
2023/06/17 06:30:24;;;;;;;10.75;9.70;;;15.90;99.90;;;;;;4714943;30;20147;-96
2023/06/17 06:32:50;;;;;;;12.85;9.73;;;15.90;99.90;;;;;;4748436;30;20043;-95
2023/06/17 06:35:16;;;;;;;10.82;9.10;;;16.00;99.90;;;;;;4738565;30;20051;-96
2023/06/17 06:37:42;;;;;;;9.07;8.02;;;16.10;99.90;;;;;;4720622;30;20052;-96
2023/06/17 06:40:08;;;;;;;10.57;9.20;;;16.20;99.90;;;;;;4746776;30;20048;-96
2023/06/17 06:42:34;;;;;;;11.50;8.93;;;16.20;99.90;;;;;;4726818;30;20093;-94
2023/06/17 06:45:00;;;;;;;10.43;9.30;;;16.30;99.90;;;;;;4729516;30;20090;-95
2023/06/17 06:47:25;;;;;;;11.73;9.18;;;16.40;99.90;;;;;;4709770;30;20130;-94
2023/06/17 06:49:51;;;;;;;9.45;8.38;;;16.40;99.90;;;;;;4731942;30;20040;-96
2023/06/17 06:52:17;;;;;;;10.65;9.20;;;16.50;99.90;;;;;;4737816;30;20040;-96
2023/06/17 06:54:42;;;;;;;11.93;8.60;;;16.50;99.90;;;;;;4720347;30;20044;-96
2023/06/17 06:57:08;;;;;;;10.82;8.32;;;16.60;99.90;;;;;;4722154;30;20137;-94
2023/06/17 06:59:34;;;;;;;10.68;8.75;;;16.60;99.90;;;;;;4718550;30;20340;-95
2023/06/17 07:02:00;;;;;;;8.90;8.00;;;16.60;99.90;;;;;;4749474;30;20127;-96
2023/06/17 07:04:26;;;;;;;9.18;8.18;;;16.60;99.90;;;;;;4712762;30;20063;-95
2023/06/17 07:06:52;;;;;;;10.33;8.53;;;16.70;99.90;;;;;;4738857;30;20047;-94
2023/06/17 07:09:18;;;;;;;9.05;7.78;;;16.90;99.90;;;;;;4737185;30;20489;-96
2023/06/17 07:14:19;;;;;;;10.35;7.97;;;17.00;99.90;;;;;;5062609;24;20126;-96
2023/06/17 07:16:47;;;;;;;9.68;7.45;;;17.00;99.90;;;;;;4748147;30;20055;-95
2023/06/17 07:19:13;;;;;;;8.48;7.68;;;17.10;99.90;;;;;;4738742;30;20082;-96
2023/06/17 07:21:39;;;;;;;10.07;7.78;;;17.20;99.90;;;;;;4741605;30;20059;-96
2023/06/17 07:24:05;;;;;;;7.90;7.10;;;17.40;99.90;;;;;;4759017;30;20083;-95
2023/06/17 07:26:31;;;;;;;7.25;6.43;;;18.30;99.90;;;;;;4759996;30;20036;-96
2023/06/17 07:28:56;;;;;;;8.18;7.00;;;19.20;99.90;;;;;;4744545;30;20044;-95
2023/06/17 07:31:34;;;;;;;8.35;7.30;;;19.80;99.90;;;;;;4758834;30;20122;-95
2023/06/17 07:34:00;;;;;;;8.15;7.15;;;20.50;99.90;;;;;;4761580;30;20040;-96
2023/06/17 07:36:26;;;;;;;8.43;7.03;;;20.90;99.90;;;;;;4757844;30;20051;-96
2023/06/17 07:38:55;;;;;;;7.97;6.68;;;21.10;99.90;;;;;;4781606;30;20047;-95
2023/06/17 07:41:21;;;;;;;6.97;6.27;;;21.80;99.90;;;;;;4727460;30;20036;-95
2023/06/17 07:43:47;;;;;;;7.88;6.43;;;21.60;99.90;;;;;;4754885;30;20051;-96
2023/06/17 07:46:12;;;;;;;8.20;7.18;;;21.20;99.90;;;;;;4725275;30;20043;-95
2023/06/17 07:48:38;;;;;;;8.65;6.60;;;20.70;99.90;;;;;;4754378;30;20047;-94
2023/06/17 07:51:04;;;;;;;8.15;6.75;;;20.60;99.90;;;;;;4749469;30;20111;-95
2023/06/17 07:53:31;;;;;;;7.18;6.35;;;21.40;99.90;;;;;;4759693;30;20047;-96
2023/06/17 07:55:56;;;;;;;8.77;7.00;;;22.30;99.90;;;;;;4758841;30;20048;-96
2023/06/17 07:58:22;;;;;;;7.38;6.60;;;22.40;99.90;;;;;;4765288;30;20035;-96
2023/06/17 08:00:48;;;;;;;7.28;6.45;;;22.30;99.90;;;;;;4742542;30;20397;-96
2023/06/17 08:03:14;;;;;;;10.50;7.20;;;22.00;99.90;;;;;;4757671;30;20051;-95
2023/06/17 08:05:40;;;;;;;8.25;5.95;;;21.60;99.90;;;;;;4754738;30;20075;-96
2023/06/17 08:08:12;;;;;;;7.40;6.00;;;21.30;99.90;;;;;;4765117;30;20479;-95
2023/06/17 08:10:38;;;;;;;7.80;6.30;;;21.10;99.90;;;;;;4777653;30;20043;-95
2023/06/17 08:13:04;;;;;;;7.90;6.13;;;20.90;99.90;;;;;;4729554;30;20043;-93
2023/06/17 08:15:29;;;;;;;7.18;5.57;;;20.90;99.90;;;;;;4744072;30;20056;-94
2023/06/17 08:17:55;;;;;;;7.47;5.75;;;20.90;99.90;;;;;;4722014;30;20054;-96
2023/06/17 08:20:21;;;;;;;6.95;5.75;;;20.90;99.90;;;;;;4731870;30;20111;-96
2023/06/17 08:22:47;;;;;;;10.10;5.90;;;20.90;99.90;;;;;;4733674;30;20055;-95
2023/06/17 08:25:13;;;;;;;8.05;5.38;;;20.90;99.90;;;;;;4792425;29;20088;-96
2023/06/17 08:27:38;;;;;;;6.50;5.57;;;21.10;99.90;;;;;;4736525;29;20031;-94
2023/06/17 08:30:06;;;;;;;9.20;5.45;;;21.30;99.90;;;;;;4740264;29;20032;-95
2023/06/17 08:32:34;;;;;;;6.82;6.13;;;21.60;99.90;;;;;;4756578;29;20052;-96
2023/06/17 08:35:06;;;;;;;6.60;5.40;;;21.50;99.90;;;;;;4714092;30;20036;-95
2023/06/17 08:37:33;;;;;;;6.47;5.88;;;21.30;99.90;;;;;;4718553;30;20036;-96
2023/06/17 08:39:59;;;;;;;;;;;21.30;99.90;;;;;;4765923;30;20130;-96
2023/06/17 08:42:27;;;;;;;9.07;6.07;;;21.30;99.90;;;;;;4742708;30;20029;-96
2023/06/17 08:44:54;;;;;;;6.70;5.25;;;21.00;99.90;;;;;;4757511;30;20051;-96
2023/06/17 08:47:20;;;;;;;;;;;21.00;99.90;;;;;;4748657;30;20054;-96
2023/06/17 08:49:46;;;;;;;6.47;5.38;;;21.20;99.90;;;;;;4772328;30;20999;-96
2023/06/17 08:52:16;;;;;;;6.88;5.70;;;21.30;99.90;;;;;;4728572;30;20039;-96
2023/06/17 08:54:43;;;;;;;7.38;5.63;;;21.30;99.90;;;;;;4750522;30;20083;-96
2023/06/17 08:57:12;;;;;;;10.65;5.57;;;21.30;99.90;;;;;;4757806;30;20051;-95
2023/06/17 08:59:39;;;;;;;6.40;4.97;;;21.50;99.90;;;;;;4753886;30;20043;-96
2023/06/17 09:02:14;;;;;;;7.50;4.90;;;21.70;99.90;;;;;;4758312;30;20047;-95
2023/06/17 09:04:40;;;;;;;6.80;5.20;;;22.00;99.90;;;;;;4750803;30;20052;-95
2023/06/17 09:07:09;;;;;;;8.90;5.05;;;22.30;99.90;;;;;;4756449;30;20047;-95
2023/06/17 09:09:36;;;;;;;35.25;7.22;;;22.30;99.90;;;;;;4755150;30;20400;-94
2023/06/17 09:12:06;;;;;;;6.68;5.47;;;22.30;99.90;;;;;;4763539;30;20044;-94
2023/06/17 09:14:33;;;;;;;7.00;5.00;;;22.40;99.90;;;;;;4769874;29;20548;-95
2023/06/17 09:17:00;;;;;;;8.10;5.43;;;22.70;99.90;;;;;;4752835;30;20055;-93
2023/06/17 09:19:29;;;;;;;9.15;5.43;;;22.90;99.90;;;;;;4744278;30;20071;-96
2023/06/17 09:21:55;;;;;;;17.30;6.10;;;23.10;99.90;;;;;;4727662;30;20468;-95
2023/06/17 09:24:29;;;;;;;9.18;5.30;;;23.30;99.90;;;;;;4747278;30;20043;-95
2023/06/17 09:26:55;;;;;;;10.55;5.38;;;23.40;99.90;;;;;;4773678;30;20055;-94
2023/06/17 09:29:21;;;;;;;11.15;5.93;;;23.30;99.90;;;;;;4725753;30;20048;-93
2023/06/17 09:31:52;;;;;;;9.95;5.82;;;23.40;99.90;;;;;;4756968;30;20135;-94
2023/06/17 09:34:19;;;;;;;8.73;5.72;;;23.40;99.90;;;;;;4757925;30;20043;-94
2023/06/17 09:36:46;;;;;;;7.70;5.10;;;23.40;99.90;;;;;;4744722;30;20110;-94
2023/06/17 09:39:12;;;;;;;;;;;23.30;99.90;;;;;;4742559;30;20070;-94
2023/06/17 09:41:43;;;;;;;5.78;5.18;;;23.10;99.90;;;;;;4757731;29;19929;-93
2023/06/17 09:44:10;;;;;;;9.10;5.60;;;23.10;99.90;;;;;;4764517;29;20035;-93
2023/06/17 09:46:39;;;;;;;6.78;5.30;;;23.20;99.90;;;;;;4773417;29;20042;-94
2023/06/17 09:49:12;;;;;;;7.55;5.80;;;23.00;99.90;;;;;;4771969;29;20059;-95
2023/06/17 09:51:39;;;;;;;7.38;5.40;;;23.10;99.90;;;;;;4769172;29;20072;-93
2023/06/17 09:54:09;;;;;;;6.13;4.80;;;23.00;99.90;;;;;;4762602;29;20111;-94
2023/06/17 09:56:36;;;;;;;5.82;4.80;;;23.00;99.90;;;;;;4745530;29;20059;-94
2023/06/17 09:59:03;;;;;;;9.13;5.82;;;23.00;99.90;;;;;;4749430;30;20048;-94
2023/06/17 10:01:32;;;;;;;6.55;5.15;;;23.00;99.90;;;;;;4726944;30;20136;-93
2023/06/17 10:04:02;;;;;;;7.10;4.95;;;23.10;99.90;;;;;;4726492;30;20131;-94
2023/06/17 10:06:39;;;;;;;5.80;4.78;;;23.20;99.90;;;;;;4758391;30;20046;-94
2023/06/17 10:09:07;;;;;;;8.33;5.37;;;23.30;99.90;;;;;;4754692;30;20048;-94
2023/06/17 10:11:35;;;;;;;6.97;5.55;;;23.20;99.90;;;;;;4757175;30;20175;-93
2023/06/17 10:14:07;;;;;;;7.47;5.40;;;23.20;99.90;;;;;;4766420;29;20056;-93
2023/06/17 10:16:37;;;;;;;8.85;5.10;;;23.20;99.90;;;;;;4720878;30;20110;-94
2023/06/17 10:19:07;;;;;;;10.32;5.53;;;23.10;99.90;;;;;;4752073;30;20052;-94
2023/06/17 10:21:38;;;;;;;16.88;5.85;;;23.40;99.90;;;;;;4769950;30;20051;-94
2023/06/17 10:24:10;;;;;;;8.38;5.60;;;23.50;99.90;;;;;;4760808;30;20050;-94
2023/06/17 10:26:36;;;;;;;8.32;5.40;;;23.50;99.90;;;;;;4738287;30;20581;-94
2023/06/17 10:29:14;;;;;;;6.28;5.05;;;23.50;99.90;;;;;;4749336;30;20048;-94
2023/06/17 10:31:43;;;;;;;6.68;4.97;;;23.40;99.90;;;;;;4751363;30;20087;-92
2023/06/17 10:34:19;;;;;;;6.53;4.68;;;23.40;99.90;;;;;;4722211;30;20072;-94
2023/06/17 10:36:58;;;;;;;6.60;5.47;;;23.50;99.90;;;;;;4748607;30;20440;-94
2023/06/17 10:39:24;;;;;;;5.63;5.00;;;23.60;99.90;;;;;;4751337;30;20057;-95
2023/06/17 10:41:50;;;;;;;6.90;5.30;;;23.60;99.90;;;;;;4752201;30;20496;-93
2023/06/17 10:44:34;;;;;;;6.18;5.03;;;23.60;99.90;;;;;;4740730;30;20089;-93
2023/06/17 10:47:14;;;;;;;7.05;4.60;;;23.80;99.90;;;;;;4752304;30;20057;-94
2023/06/17 10:49:45;;;;;;;6.45;4.55;;;23.70;99.90;;;;;;4758010;30;20105;-94
2023/06/17 10:52:15;;;;;;;6.25;5.10;;;23.80;99.90;;;;;;4738937;30;20036;-95
2023/06/17 10:54:55;;;;;;;6.28;4.57;;;23.90;99.90;;;;;;4766827;30;20048;-94
2023/06/17 10:57:34;;;;;;;5.57;4.50;;;23.90;99.90;;;;;;4734304;30;20051;-95
2023/06/17 11:00:08;;;;;;;6.13;4.20;;;23.80;99.90;;;;;;4755986;30;20054;-93
2023/06/17 11:02:38;;;;;;;9.43;4.68;;;23.80;99.90;;;;;;4754306;30;20047;-94
2023/06/17 11:05:06;;;;;;;8.30;4.75;;;23.90;99.90;;;;;;4735234;30;20051;-93
2023/06/17 11:07:32;;;;;;;50.53;9.20;;;24.00;99.90;;;;;;4757294;30;20078;-94
2023/06/17 11:10:05;;;;;;;5.95;4.60;;;24.20;99.90;;;;;;4735775;30;20091;-95
2023/06/17 11:12:30;;;;;;;11.65;4.80;;;24.30;99.90;;;;;;4781286;29;20047;-94
2023/06/17 11:14:59;;;;;;;9.63;4.60;;;24.20;99.90;;;;;;4757551;29;20052;-93
2023/06/17 11:17:25;;;;;;;9.40;4.82;;;24.20;99.90;;;;;;4767900;29;20036;-94
2023/06/17 11:19:51;;;;;;;6.63;4.57;;;24.30;99.90;;;;;;4761403;29;20036;-91
2023/06/17 11:22:16;;;;;;;7.93;5.17;;;24.40;99.90;;;;;;4749807;29;20039;-94
2023/06/17 11:24:45;;;;;;;7.07;4.70;;;24.20;99.90;;;;;;4734146;29;20047;-94
2023/06/17 11:27:28;;;;;;;8.52;4.65;;;24.30;99.90;;;;;;4774798;29;20103;-93
2023/06/17 11:29:55;;;;;;;5.57;4.10;;;24.50;99.90;;;;;;4752014;29;20101;-93
2023/06/17 11:32:21;;;;;;;6.18;4.53;;;24.60;99.90;;;;;;4770835;30;20040;-94
2023/06/17 11:34:49;;;;;;;6.90;4.30;;;24.50;99.90;;;;;;4745424;30;20043;-94
2023/06/17 11:37:16;;;;;;;7.43;4.18;;;24.50;99.90;;;;;;4755189;30;20040;-93
2023/06/17 11:39:42;;;;;;;6.75;4.07;;;24.50;99.90;;;;;;4737461;30;20051;-93
2023/06/17 11:42:09;;;;;;;5.77;3.77;;;24.40;99.90;;;;;;4744545;30;20568;-93
2023/06/17 11:44:35;;;;;;;9.32;3.90;;;24.50;99.90;;;;;;4741402;30;20047;-93
2023/06/17 11:47:06;;;;;;;5.25;3.67;;;24.30;99.90;;;;;;4749785;30;20067;-92
2023/06/17 11:49:52;;;;;;;5.57;3.60;;;24.30;99.90;;;;;;4739663;30;20044;-94
2023/06/17 11:52:18;;;;;;;7.00;4.85;;;24.40;99.90;;;;;;4738248;30;20131;-92
2023/06/17 11:54:53;;;;;;;10.60;4.13;;;24.40;99.90;;;;;;4756015;30;20067;-94
2023/06/17 11:57:24;;;;;;;6.00;3.70;;;24.30;99.90;;;;;;4760525;30;20048;-93
2023/06/17 11:59:57;;;;;;;6.03;4.13;;;24.30;99.90;;;;;;4724135;30;20062;-94
2023/06/17 12:02:30;;;;;;;6.28;4.25;;;24.30;99.90;;;;;;4742412;30;20109;-95
2023/06/17 12:05:01;;;;;;;8.45;4.28;;;24.20;99.90;;;;;;4754266;30;20044;-94
2023/06/17 12:07:27;;;;;;;9.13;4.40;;;24.40;99.90;;;;;;4727677;30;20054;-94
2023/06/17 12:09:54;;;;;;;11.03;4.70;;;24.30;99.90;;;;;;4724257;30;20408;-93
2023/06/17 12:12:33;;;;;;;6.03;3.97;;;24.30;99.90;;;;;;4758052;30;20032;-93
2023/06/17 12:15:09;;;;;;;5.57;4.53;;;24.30;99.90;;;;;;4751489;30;20087;-94
2023/06/17 12:17:42;;;;;;;6.35;4.45;;;24.20;99.90;;;;;;4756887;30;20052;-95
2023/06/17 12:20:14;;;;;;;5.78;4.00;;;24.10;99.90;;;;;;4744136;30;20051;-93
2023/06/17 12:22:41;;;;;;;5.25;3.63;;;24.10;99.90;;;;;;4752622;30;20070;-93
2023/06/17 12:25:07;;;;;;;5.63;3.40;;;24.10;99.90;;;;;;4757607;30;20052;-94
2023/06/17 12:27:33;;;;;;;6.13;3.85;;;24.10;99.90;;;;;;4732515;30;20768;-95
2023/06/17 12:30:00;;;;;;;5.43;3.57;;;24.10;99.90;;;;;;4741015;30;20078;-93
2023/06/17 12:32:29;;;;;;;4.32;3.67;;;24.10;99.90;;;;;;4743979;30;20044;-91
2023/06/17 12:34:55;;;;;;;6.43;3.90;;;24.00;99.90;;;;;;4734313;30;20056;-92
2023/06/17 12:37:26;;;;;;;4.13;3.27;;;24.00;99.90;;;;;;4772105;30;20051;-93
2023/06/17 12:39:57;;;;;;;6.50;3.47;;;23.80;99.90;;;;;;4743401;30;20055;-96
2023/06/17 12:42:26;;;;;;;5.47;3.55;;;23.70;99.90;;;;;;4767862;30;20059;-93
2023/06/17 12:44:52;;;;;;;6.33;3.27;;;23.70;99.90;;;;;;4764767;30;20043;-93
2023/06/17 12:47:18;;;;;;;6.30;3.63;;;23.70;99.90;;;;;;4771917;29;20030;-94